Time;durP1;ratioP1;P1;durP2;ratioP2;P2;SDS_P1;SDS_P2;PMS_P1;PMS_P2;Temp;Humidity;BMP_temperature;BMP_pressure;BME280_temperature;BME280_humidity;BME280_pressure;Samples;Min_cycle;Max_cycle;Signal;HPM_P1;HPM_P2
2022/03/24 00:01:22;;;;;;;90.15;59.10;;;;;;;;;;6269201;22;20427;-86
2022/03/24 00:03:48;;;;;;;90.00;60.97;;;;;;;;;;6267261;22;20038;-86
2022/03/24 00:06:14;;;;;;;96.97;63.45;;;;;;;;;;6267411;22;20098;-87
2022/03/24 00:08:40;;;;;;;95.43;61.88;;;;;;;;;;6239740;22;20016;-86
2022/03/24 00:11:06;;;;;;;92.03;62.90;;;;;;;;;;6265116;22;20475;-84
2022/03/24 00:13:32;;;;;;;89.28;60.60;;;;;;;;;;6267352;22;20026;-87
2022/03/24 00:15:59;;;;;;;87.10;59.72;;;;;;;;;;6266573;22;20463;-86
2022/03/24 00:18:25;;;;;;;95.18;60.40;;;;;;;;;;6266717;22;20015;-86
2022/03/24 00:20:51;;;;;;;89.32;61.40;;;;;;;;;;6265568;22;20023;-85
2022/03/24 00:23:17;;;;;;;91.03;60.33;;;;;;;;;;6265947;22;20157;-87
2022/03/24 00:25:44;;;;;;;95.05;59.88;;;;;;;;;;6264867;22;20020;-87
2022/03/24 00:28:10;;;;;;;97.65;63.70;;;;;;;;;;6269293;22;20020;-85
2022/03/24 00:30:36;;;;;;;99.10;65.63;;;;;;;;;;6267077;22;20320;-85
2022/03/24 00:33:03;;;;;;;98.50;65.22;;;;;;;;;;6268097;22;20486;-85
2022/03/24 00:35:31;;;;;;;97.13;65.35;;;;;;;;;;6267458;22;20023;-85
2022/03/24 00:37:57;;;;;;;105.32;65.25;;;;;;;;;;6238705;22;20141;-85
2022/03/24 00:40:23;;;;;;;96.63;65.32;;;;;;;;;;6264938;22;20023;-88
2022/03/24 00:42:50;;;;;;;97.13;63.90;;;;;;;;;;6264635;22;20487;-85
2022/03/24 00:45:18;;;;;;;94.03;64.28;;;;;;;;;;6214512;22;20020;-85
2022/03/24 00:47:45;;;;;;;97.95;65.00;;;;;;;;;;6238531;22;20510;-85
2022/03/24 00:50:12;;;;;;;100.60;64.07;;;;;;;;;;6240138;22;20102;-86
2022/03/24 00:52:42;;;;;;;97.35;64.90;;;;;;;;;;6267226;22;20023;-87
2022/03/24 00:55:11;;;;;;;92.00;61.40;;;;;;;;;;6267448;22;20054;-84
2022/03/24 00:57:37;;;;;;;98.90;64.93;;;;;;;;;;6268690;22;20379;-85
2022/03/24 01:00:04;;;;;;;97.93;63.22;;;;;;;;;;6266461;22;20016;-86
2022/03/24 01:02:30;;;;;;;101.75;65.95;;;;;;;;;;6268279;22;20057;-86
2022/03/24 01:04:56;;;;;;;98.30;66.40;;;;;;;;;;6265747;22;20531;-87
2022/03/24 01:07:23;;;;;;;101.78;67.03;;;;;;;;;;6239451;22;20343;-87
2022/03/24 01:09:49;;;;;;;104.60;68.32;;;;;;;;;;6264225;22;20118;-86
2022/03/24 01:12:16;;;;;;;105.97;65.15;;;;;;;;;;6265113;22;20012;-83
2022/03/24 01:14:42;;;;;;;102.30;65.35;;;;;;;;;;6265920;22;20026;-83
2022/03/24 01:17:10;;;;;;;101.85;66.00;;;;;;;;;;6266264;22;20486;-83
2022/03/24 01:19:37;;;;;;;101.93;64.50;;;;;;;;;;6265467;22;20044;-85
2022/03/24 01:22:03;;;;;;;98.63;66.25;;;;;;;;;;6267535;22;20512;-85
2022/03/24 01:24:30;;;;;;;96.85;64.85;;;;;;;;;;6265109;22;20451;-85
2022/03/24 01:26:56;;;;;;;102.95;66.45;;;;;;;;;;6266459;22;20016;-85
2022/03/24 01:29:23;;;;;;;99.65;68.22;;;;;;;;;;6264824;22;20496;-85
2022/03/24 01:31:51;;;;;;;104.35;68.93;;;;;;;;;;6265635;22;20455;-84
2022/03/24 01:34:17;;;;;;;105.93;67.60;;;;;;;;;;6268656;22;20022;-84
2022/03/24 01:36:43;;;;;;;100.70;66.53;;;;;;;;;;6266303;22;20020;-85
2022/03/24 01:39:10;;;;;;;109.53;69.03;;;;;;;;;;6268127;22;20462;-82
2022/03/24 01:41:38;;;;;;;108.28;68.45;;;;;;;;;;6283523;22;21107;-84
2022/03/24 01:44:12;;;;;;;109.70;68.53;;;;;;;;;;6267777;22;20027;-84
2022/03/24 01:46:39;;;;;;;106.90;67.93;;;;;;;;;;6266011;22;20312;-85
2022/03/24 01:49:05;;;;;;;106.53;67.13;;;;;;;;;;6265614;22;20012;-87
2022/03/24 01:51:31;;;;;;;111.30;72.47;;;;;;;;;;6240089;22;20030;-84
2022/03/24 01:53:59;;;;;;;111.15;70.57;;;;;;;;;;6266229;22;20016;-87
2022/03/24 01:56:26;;;;;;;104.15;68.55;;;;;;;;;;6238299;22;20031;-85
2022/03/24 01:58:52;;;;;;;111.32;68.80;;;;;;;;;;6266099;22;20791;-84
2022/03/24 02:01:27;;;;;;;117.03;71.55;;;;;;;;;;6267560;22;20455;-85
2022/03/24 02:03:55;;;;;;;107.63;68.97;;;;;;;;;;6264994;22;20020;-87
2022/03/24 02:06:21;;;;;;;121.13;72.07;;;;;;;;;;6265343;22;20033;-83
2022/03/24 02:08:47;;;;;;;110.45;70.80;;;;;;;;;;6266730;22;20027;-85
2022/03/24 02:11:13;;;;;;;106.72;69.28;;;;;;;;;;6262854;22;20321;-84
2022/03/24 02:13:40;;;;;;;111.88;72.63;;;;;;;;;;6267235;22;20016;-83
2022/03/24 02:16:12;;;;;;;126.65;75.18;;;;;;;;;;6265934;22;20445;-85
2022/03/24 02:18:39;;;;;;;119.10;73.97;;;;;;;;;;6264933;22;20131;-85
2022/03/24 02:21:05;;;;;;;122.03;78.43;;;;;;;;;;6265552;22;20350;-86
2022/03/24 02:23:32;;;;;;;127.43;78.90;;;;;;;;;;6264260;22;20019;-85
2022/03/24 02:25:58;;;;;;;126.75;78.80;;;;;;;;;;6263899;22;20022;-83
2022/03/24 02:28:24;;;;;;;124.00;77.57;;;;;;;;;;6264807;22;20363;-86
2022/03/24 02:30:51;;;;;;;130.75;80.65;;;;;;;;;;6276152;22;20023;-85
2022/03/24 02:33:23;;;;;;;146.07;81.47;;;;;;;;;;6271328;22;20807;-86
2022/03/24 02:35:51;;;;;;;121.57;78.03;;;;;;;;;;6263760;22;20181;-82
2022/03/24 02:38:19;;;;;;;122.60;76.93;;;;;;;;;;6264004;22;20015;-84
2022/03/24 02:40:46;;;;;;;122.63;74.93;;;;;;;;;;6264888;22;20019;-85
2022/03/24 02:43:12;;;;;;;120.30;74.85;;;;;;;;;;6237702;22;20019;-83
2022/03/24 02:45:38;;;;;;;115.38;75.25;;;;;;;;;;6265134;22;20026;-85
2022/03/24 02:48:05;;;;;;;115.40;73.63;;;;;;;;;;6264947;22;20023;-88
2022/03/24 02:50:31;;;;;;;117.05;73.85;;;;;;;;;;6263992;22;20051;-88
2022/03/24 02:52:58;;;;;;;122.10;74.50;;;;;;;;;;6264798;22;20098;-85
2022/03/24 02:55:25;;;;;;;117.80;76.57;;;;;;;;;;6237633;22;20070;-86
2022/03/24 02:57:52;;;;;;;111.30;69.90;;;;;;;;;;6263703;22;20495;-86
2022/03/24 03:00:18;;;;;;;112.30;70.78;;;;;;;;;;6263709;22;20023;-87
2022/03/24 03:02:44;;;;;;;113.20;70.57;;;;;;;;;;6236056;22;20016;-85
2022/03/24 03:05:10;;;;;;;118.97;72.60;;;;;;;;;;6265415;22;20106;-86
2022/03/24 03:07:36;;;;;;;117.32;70.60;;;;;;;;;;6264048;22;20336;-87
2022/03/24 03:10:03;;;;;;;111.20;72.60;;;;;;;;;;6264930;22;20051;-86
2022/03/24 03:12:29;;;;;;;112.97;71.82;;;;;;;;;;6263368;22;20016;-85
2022/03/24 03:14:58;;;;;;;115.93;70.78;;;;;;;;;;6265061;22;20038;-87
2022/03/24 03:17:30;;;;;;;114.93;71.80;;;;;;;;;;6264777;22;20023;-87
2022/03/24 03:19:56;;;;;;;115.40;72.50;;;;;;;;;;6264530;22;20456;-87
2022/03/24 03:22:22;;;;;;;112.18;71.80;;;;;;;;;;6263474;22;20015;-87
2022/03/24 03:24:50;;;;;;;111.80;72.88;;;;;;;;;;6236704;22;20051;-88
2022/03/24 03:27:16;;;;;;;114.90;72.13;;;;;;;;;;6266489;22;20023;-84
2022/03/24 03:29:42;;;;;;;109.18;69.65;;;;;;;;;;6264790;22;20019;-87
2022/03/24 03:32:09;;;;;;;111.80;70.15;;;;;;;;;;6263515;22;20019;-84
2022/03/24 03:34:36;;;;;;;105.50;68.47;;;;;;;;;;6264360;22;20097;-83
2022/03/24 03:37:02;;;;;;;100.53;65.80;;;;;;;;;;6264946;22;20026;-82
2022/03/24 03:39:34;;;;;;;110.68;70.03;;;;;;;;;;6263925;22;20016;-86
2022/03/24 03:42:01;;;;;;;105.88;68.50;;;;;;;;;;6279139;22;20069;-82
2022/03/24 03:44:27;;;;;;;107.75;68.10;;;;;;;;;;6263101;22;20059;-84
2022/03/24 03:46:54;;;;;;;110.70;68.72;;;;;;;;;;6285760;22;20015;-84
2022/03/24 03:49:21;;;;;;;109.90;68.82;;;;;;;;;;6292893;22;20050;-80
2022/03/24 03:51:47;;;;;;;108.18;68.28;;;;;;;;;;6218234;22;20024;-85
2022/03/24 03:54:15;;;;;;;111.63;68.18;;;;;;;;;;6267861;22;20015;-85
2022/03/24 03:56:41;;;;;;;108.38;68.90;;;;;;;;;;6267198;22;20051;-86
2022/03/24 03:59:08;;;;;;;100.82;63.80;;;;;;;;;;6267066;22;20046;-84
2022/03/24 04:01:36;;;;;;;99.90;63.50;;;;;;;;;;6266637;22;20077;-87
2022/03/24 04:04:04;;;;;;;115.15;70.30;;;;;;;;;;6238908;22;20020;-86
2022/03/24 04:06:30;;;;;;;103.03;65.13;;;;;;;;;;6267433;22;20091;-87
2022/03/24 04:08:56;;;;;;;101.05;67.20;;;;;;;;;;6263633;22;20012;-88
2022/03/24 04:11:22;;;;;;;105.72;66.93;;;;;;;;;;6266550;22;20038;-85
2022/03/24 04:13:48;;;;;;;100.50;65.47;;;;;;;;;;6264534;22;20023;-85
2022/03/24 04:16:14;;;;;;;103.82;65.68;;;;;;;;;;6262533;22;20046;-87
2022/03/24 04:18:41;;;;;;;94.03;62.40;;;;;;;;;;6263450;22;20043;-84
2022/03/24 04:21:07;;;;;;;97.20;62.70;;;;;;;;;;6262500;22;20055;-85
2022/03/24 04:23:37;;;;;;;111.18;65.28;;;;;;;;;;6263450;22;20094;-86
2022/03/24 04:26:04;;;;;;;98.88;65.93;;;;;;;;;;6265647;22;20051;-86
2022/03/24 04:28:30;;;;;;;97.18;64.45;;;;;;;;;;6266895;22;20456;-85
2022/03/24 04:30:56;;;;;;;100.82;65.15;;;;;;;;;;6266730;22;20447;-85
2022/03/24 04:33:23;;;;;;;98.13;64.70;;;;;;;;;;6266463;22;20019;-85
2022/03/24 04:35:49;;;;;;;100.05;63.30;;;;;;;;;;6266623;22;20058;-87
2022/03/24 04:38:15;;;;;;;100.80;64.57;;;;;;;;;;6266298;22;20045;-84
2022/03/24 04:40:41;;;;;;;100.38;64.65;;;;;;;;;;6265689;22;20701;-83
2022/03/24 04:43:08;;;;;;;97.07;65.25;;;;;;;;;;6266359;22;20051;-86
2022/03/24 04:45:34;;;;;;;91.07;60.25;;;;;;;;;;6189319;22;20027;-85
2022/03/24 04:48:01;;;;;;;90.55;60.72;;;;;;;;;;6265741;22;20051;-87
2022/03/24 04:50:27;;;;;;;91.70;60.35;;;;;;;;;;6266492;22;20339;-85
2022/03/24 04:52:53;;;;;;;100.40;66.05;;;;;;;;;;6239693;22;20018;-86
2022/03/24 04:55:19;;;;;;;94.82;60.78;;;;;;;;;;6266217;22;20035;-85
2022/03/24 04:57:45;;;;;;;96.13;62.63;;;;;;;;;;6266590;22;20047;-83
2022/03/24 05:00:12;;;;;;;97.40;61.42;;;;;;;;;;6274975;22;20027;-85
2022/03/24 05:02:39;;;;;;;93.90;59.33;;;;;;;;;;6267273;22;20777;-88
2022/03/24 05:05:06;;;;;;;86.25;57.38;;;;;;;;;;6265352;22;20114;-86
2022/03/24 05:07:32;;;;;;;94.35;62.58;;;;;;;;;;6238850;22;20020;-87
2022/03/24 05:09:58;;;;;;;96.22;63.35;;;;;;;;;;6264176;22;20352;-86
2022/03/24 05:12:24;;;;;;;102.00;64.40;;;;;;;;;;6266112;22;20344;-86
2022/03/24 05:14:50;;;;;;;93.72;63.50;;;;;;;;;;6264428;22;20469;-86
2022/03/24 05:17:17;;;;;;;88.65;57.95;;;;;;;;;;6264668;22;20019;-86
2022/03/24 05:19:48;;;;;;;83.30;53.70;;;;;;;;;;6262130;22;20023;-84
2022/03/24 05:22:14;;;;;;;88.15;58.83;;;;;;;;;;6265543;22;20077;-86
2022/03/24 05:24:41;;;;;;;80.00;52.55;;;;;;;;;;6265468;22;21008;-87
2022/03/24 05:27:08;;;;;;;77.47;51.83;;;;;;;;;;6264577;22;20023;-83
2022/03/24 05:29:34;;;;;;;73.40;52.13;;;;;;;;;;6265816;22;20494;-85
2022/03/24 05:32:00;;;;;;;75.80;51.47;;;;;;;;;;6235868;22;20019;-86
2022/03/24 05:34:26;;;;;;;76.22;52.55;;;;;;;;;;6263900;22;20020;-85
2022/03/24 05:36:53;;;;;;;96.63;61.70;;;;;;;;;;6264893;22;20026;-85
2022/03/24 05:39:19;;;;;;;95.15;58.65;;;;;;;;;;6265163;22;20025;-86
2022/03/24 05:41:45;;;;;;;91.38;59.13;;;;;;;;;;6267507;22;20530;-86
2022/03/24 05:44:11;;;;;;;88.05;57.70;;;;;;;;;;6265785;22;20028;-87
2022/03/24 05:46:44;;;;;;;86.68;56.40;;;;;;;;;;6264154;22;20020;-82
2022/03/24 05:49:13;;;;;;;90.45;57.65;;;;;;;;;;6243255;22;20043;-86
2022/03/24 05:51:39;;;;;;;86.20;59.30;;;;;;;;;;6241353;22;20085;-83
2022/03/24 05:54:09;;;;;;;87.70;59.05;;;;;;;;;;6264921;22;20016;-88
2022/03/24 05:56:35;;;;;;;92.30;60.58;;;;;;;;;;6240692;22;20020;-85
2022/03/24 05:59:02;;;;;;;102.15;66.38;;;;;;;;;;6266782;22;20023;-87
2022/03/24 06:01:28;;;;;;;94.20;63.03;;;;;;;;;;6266908;22;20019;-86
2022/03/24 06:03:55;;;;;;;90.25;55.80;;;;;;;;;;6247963;22;20024;-86
2022/03/24 06:06:26;;;;;;;84.55;58.95;;;;;;;;;;6234856;23;20035;-84
2022/03/24 06:08:52;;;;;;;83.25;56.50;;;;;;;;;;6239653;22;20028;-81
2022/03/24 06:11:19;;;;;;;82.75;57.40;;;;;;;;;;6264665;22;20058;-85
2022/03/24 06:13:46;;;;;;;82.25;56.00;;;;;;;;;;6239072;22;20016;-86
2022/03/24 06:16:13;;;;;;;86.28;55.95;;;;;;;;;;6263348;22;20431;-85
2022/03/24 06:18:40;;;;;;;88.28;58.15;;;;;;;;;;6266617;22;20035;-85
2022/03/24 06:21:07;;;;;;;87.50;57.70;;;;;;;;;;6266539;22;20533;-88
2022/03/24 06:23:33;;;;;;;89.28;57.33;;;;;;;;;;6265083;22;20058;-85
2022/03/24 06:26:00;;;;;;;85.72;56.13;;;;;;;;;;6265595;22;20210;-82
2022/03/24 06:28:26;;;;;;;81.80;56.10;;;;;;;;;;6264291;22;20834;-81
2022/03/24 06:30:52;;;;;;;83.95;57.03;;;;;;;;;;6266472;22;20019;-84
2022/03/24 06:33:18;;;;;;;84.90;56.97;;;;;;;;;;6264289;22;20051;-81
2022/03/24 06:35:45;;;;;;;83.68;55.78;;;;;;;;;;6266213;22;20693;-87
2022/03/24 06:38:12;;;;;;;79.40;55.53;;;;;;;;;;6267672;22;20309;-85
2022/03/24 06:40:39;;;;;;;84.18;55.95;;;;;;;;;;6268307;22;20023;-86
2022/03/24 06:43:09;;;;;;;80.38;55.33;;;;;;;;;;6265699;22;20096;-80
2022/03/24 06:45:36;;;;;;;81.38;55.58;;;;;;;;;;6237611;22;20024;-85
2022/03/24 06:48:02;;;;;;;76.18;51.90;;;;;;;;;;6265989;22;20102;-80
2022/03/24 06:50:28;;;;;;;83.65;50.42;;;;;;;;;;6236148;22;20051;-86
2022/03/24 06:52:55;;;;;;;76.53;51.28;;;;;;;;;;6265870;22;20107;-83
2022/03/24 06:55:21;;;;;;;80.75;53.75;;;;;;;;;;6264136;22;20051;-84
2022/03/24 06:57:47;;;;;;;80.80;53.42;;;;;;;;;;6266660;22;20020;-85
2022/03/24 07:00:15;;;;;;;83.82;55.95;;;;;;;;;;6263882;22;20474;-85
2022/03/24 07:02:42;;;;;;;86.88;58.35;;;;;;;;;;6265494;22;20027;-83
2022/03/24 07:05:08;;;;;;;84.13;55.60;;;;;;;;;;6265074;22;20070;-84
2022/03/24 07:07:35;;;;;;;86.72;56.72;;;;;;;;;;6263996;22;20019;-86
2022/03/24 07:10:01;;;;;;;83.85;54.70;;;;;;;;;;6266514;22;20055;-87
2022/03/24 07:12:27;;;;;;;84.90;54.92;;;;;;;;;;6263575;22;20528;-86
2022/03/24 07:14:53;;;;;;;90.93;60.25;;;;;;;;;;6266101;22;20019;-86
2022/03/24 07:17:19;;;;;;;90.45;59.03;;;;;;;;;;6262524;22;20534;-86
2022/03/24 07:19:46;;;;;;;84.93;58.60;;;;;;;;;;6266712;22;20033;-87
2022/03/24 07:22:12;;;;;;;93.75;61.05;;;;;;;;;;6266035;22;20015;-81
2022/03/24 07:24:38;;;;;;;90.63;62.20;;;;;;;;;;6265446;22;20348;-85
2022/03/24 07:27:05;;;;;;;91.30;60.90;;;;;;;;;;6217951;22;20065;-85
2022/03/24 07:29:31;;;;;;;86.13;59.92;;;;;;;;;;6272788;22;20376;-85
2022/03/24 07:31:57;;;;;;;87.90;57.13;;;;;;;;;;6189320;22;20015;-86
2022/03/24 07:34:24;;;;;;;83.43;54.05;;;;;;;;;;6265016;22;20047;-83
2022/03/24 07:36:50;;;;;;;75.80;51.25;;;;;;;;;;6268739;22;20034;-84
2022/03/24 07:39:16;;;;;;;77.78;51.28;;;;;;;;;;6275143;22;20007;-86
2022/03/24 07:41:44;;;;;;;79.45;48.63;;;;;;;;;;6274189;22;20031;-82
2022/03/24 07:44:10;;;;;;;72.30;46.10;;;;;;;;;;6288333;22;20055;-86
2022/03/24 07:46:37;;;;;;;64.38;45.88;;;;;;;;;;6287683;22;20023;-80
2022/03/24 07:49:03;;;;;;;78.25;49.45;;;;;;;;;;6264676;22;20015;-80
2022/03/24 07:51:32;;;;;;;70.00;46.50;;;;;;;;;;6259393;22;20020;-82
2022/03/24 07:54:00;;;;;;;74.18;48.20;;;;;;;;;;6289638;22;20031;-84
2022/03/24 07:56:28;;;;;;;79.22;48.70;;;;;;;;;;6259545;22;20046;-80
2022/03/24 07:58:54;;;;;;;76.57;49.20;;;;;;;;;;6262075;22;20070;-84
2022/03/24 08:01:38;;;;;;;78.75;49.95;;;;;;;;;;6268355;22;20103;-80
2022/03/24 08:04:05;;;;;;;66.28;45.58;;;;;;;;;;6266575;22;20105;-84
2022/03/24 08:06:32;;;;;;;79.65;52.35;;;;;;;;;;6270104;22;20109;-82
2022/03/24 08:08:58;;;;;;;77.93;53.65;;;;;;;;;;6266530;22;20129;-84
2022/03/24 08:11:25;;;;;;;73.50;51.92;;;;;;;;;;6269534;22;20019;-83
2022/03/24 08:13:53;;;;;;;76.97;50.60;;;;;;;;;;6266556;22;20020;-85
2022/03/24 08:16:20;;;;;;;73.43;47.35;;;;;;;;;;6246131;22;20067;-84
2022/03/24 08:18:47;;;;;;;65.45;43.60;;;;;;;;;;6238858;22;20027;-87
2022/03/24 08:21:13;;;;;;;75.93;46.97;;;;;;;;;;6238687;22;20023;-84
2022/03/24 08:23:39;;;;;;;66.07;43.08;;;;;;;;;;6264610;22;20151;-86
2022/03/24 08:26:05;;;;;;;62.45;42.83;;;;;;;;;;6260808;22;20024;-86
2022/03/24 08:28:31;;;;;;;73.38;46.95;;;;;;;;;;6266357;22;20016;-81
2022/03/24 08:30:57;;;;;;;75.88;49.50;;;;;;;;;;6262692;22;20016;-84
2022/03/24 08:33:23;;;;;;;76.85;47.88;;;;;;;;;;6188945;22;20023;-87
2022/03/24 08:35:50;;;;;;;82.38;48.95;;;;;;;;;;6264200;22;20340;-89
2022/03/24 08:38:16;;;;;;;76.63;52.88;;;;;;;;;;6266728;22;20393;-81
2022/03/24 08:40:42;;;;;;;72.68;49.10;;;;;;;;;;6187941;22;20019;-88
2022/03/24 08:43:08;;;;;;;69.03;45.55;;;;;;;;;;6266573;22;20460;-86
2022/03/24 08:45:36;;;;;;;71.82;48.22;;;;;;;;;;6266262;22;20105;-87
2022/03/24 08:48:02;;;;;;;67.55;46.03;;;;;;;;;;6267594;22;20106;-84
2022/03/24 08:50:28;;;;;;;70.47;45.47;;;;;;;;;;6270009;22;20026;-87
2022/03/24 08:52:55;;;;;;;72.05;48.03;;;;;;;;;;6267208;22;20095;-87
2022/03/24 08:55:22;;;;;;;66.03;48.25;;;;;;;;;;6270965;22;20023;-86
2022/03/24 08:57:48;;;;;;;67.85;46.45;;;;;;;;;;6265369;22;20103;-86
2022/03/24 09:00:17;;;;;;;79.82;47.90;;;;;;;;;;6267262;22;20082;-87
2022/03/24 09:02:47;;;;;;;72.25;47.85;;;;;;;;;;6263235;22;20028;-87
2022/03/24 09:05:14;;;;;;;75.28;48.50;;;;;;;;;;6239168;22;20306;-86
2022/03/24 09:07:40;;;;;;;70.15;50.72;;;;;;;;;;6239163;22;20016;-88
2022/03/24 09:10:07;;;;;;;73.70;50.67;;;;;;;;;;6266460;22;20035;-85
2022/03/24 09:12:35;;;;;;;77.68;49.92;;;;;;;;;;6268002;22;20054;-87
2022/03/24 09:15:05;;;;;;;78.18;53.80;;;;;;;;;;6265011;22;20067;-87
2022/03/24 09:17:31;;;;;;;71.30;51.10;;;;;;;;;;6268984;22;20076;-85
2022/03/24 09:19:57;;;;;;;70.57;49.72;;;;;;;;;;6266611;22;20098;-84
2022/03/24 09:22:23;;;;;;;73.97;49.15;;;;;;;;;;6269414;22;20428;-89
2022/03/24 09:24:49;;;;;;;75.43;49.72;;;;;;;;;;6266291;22;20193;-86
2022/03/24 09:27:15;;;;;;;72.03;48.75;;;;;;;;;;6265054;22;20022;-86
2022/03/24 09:29:42;;;;;;;66.95;48.03;;;;;;;;;;6239578;22;20038;-85
2022/03/24 09:32:12;;;;;;;66.43;45.35;;;;;;;;;;6265378;22;20130;-81
2022/03/24 09:34:39;;;;;;;64.00;44.47;;;;;;;;;;6268144;22;20019;-88
2022/03/24 09:37:06;;;;;;;68.72;47.65;;;;;;;;;;6271268;22;20090;-89
2022/03/24 09:39:32;;;;;;;67.78;48.63;;;;;;;;;;6266143;22;20072;-88
2022/03/24 09:41:58;;;;;;;72.15;48.78;;;;;;;;;;6268400;22;20460;-90
2022/03/24 09:44:26;;;;;;;66.30;49.25;;;;;;;;;;6274435;22;20083;-87
2022/03/24 09:46:52;;;;;;;71.50;50.67;;;;;;;;;;6292034;22;20091;-85
2022/03/24 09:49:18;;;;;;;74.28;50.72;;;;;;;;;;6288746;22;20073;-83
2022/03/24 09:51:50;;;;;;;73.70;51.00;;;;;;;;;;6264032;22;20005;-88
2022/03/24 09:54:17;;;;;;;70.68;50.80;;;;;;;;;;6287751;22;20091;-87
2022/03/24 09:56:44;;;;;;;69.07;49.83;;;;;;;;;;6294651;22;20020;-82
2022/03/24 09:59:10;;;;;;;72.38;50.47;;;;;;;;;;6291626;22;20592;-82
2022/03/24 10:01:39;;;;;;;69.82;49.47;;;;;;;;;;6292032;22;20057;-82
2022/03/24 10:04:14;;;;;;;72.93;50.03;;;;;;;;;;6236196;22;20075;-85
2022/03/24 10:06:59;;;;;;;70.47;50.33;;;;;;;;;;6173372;23;20162;-89
2022/03/24 10:09:37;;;;;;;73.18;51.85;;;;;;;;;;6212681;23;20013;-88
2022/03/24 10:12:05;;;;;;;74.13;51.67;;;;;;;;;;6184828;23;20074;-87
2022/03/24 10:14:51;;;;;;;75.93;52.17;;;;;;;;;;6220609;23;20016;-87
2022/03/24 10:17:18;;;;;;;73.25;52.15;;;;;;;;;;6211086;23;20099;-88
2022/03/24 10:19:56;;;;;;;73.43;52.92;;;;;;;;;;6185068;23;20036;-88
2022/03/24 10:22:22;;;;;;;73.45;52.00;;;;;;;;;;6211229;23;20021;-89
2022/03/24 10:24:48;;;;;;;75.95;53.60;;;;;;;;;;6211083;23;20067;-89
2022/03/24 10:27:20;;;;;;;71.57;50.90;;;;;;;;;;6208597;23;20329;-89
2022/03/24 10:29:49;;;;;;;71.68;50.13;;;;;;;;;;6208212;23;20056;-87
2022/03/24 10:32:15;;;;;;;75.97;48.38;;;;;;;;;;6205193;23;20019;-88
2022/03/24 10:34:43;;;;;;;62.38;45.70;;;;;;;;;;6136499;23;20030;-88
2022/03/24 10:37:12;;;;;;;68.90;45.67;;;;;;;;;;6156083;23;20048;-86
2022/03/24 10:39:40;;;;;;;70.03;47.22;;;;;;;;;;6209994;23;20125;-85
2022/03/24 10:42:10;;;;;;;70.80;47.97;;;;;;;;;;6179721;23;20099;-88
2022/03/24 10:44:37;;;;;;;73.28;48.65;;;;;;;;;;6204211;23;20033;-86
2022/03/24 10:47:03;;;;;;;79.32;49.63;;;;;;;;;;6208110;23;20017;-86
2022/03/24 10:49:30;;;;;;;65.85;49.13;;;;;;;;;;6129201;23;20024;-84
2022/03/24 10:52:00;;;;;;;74.05;49.58;;;;;;;;;;6206487;23;20464;-87
2022/03/24 10:54:48;;;;;;;70.00;49.50;;;;;;;;;;6180750;23;20099;-82
2022/03/24 10:57:15;;;;;;;69.65;48.70;;;;;;;;;;6208014;23;20053;-83
2022/03/24 10:59:58;;;;;;;75.28;50.50;;;;;;;;;;6159477;23;20024;-81
2022/03/24 11:02:26;;;;;;;74.85;50.90;;;;;;;;;;6134713;23;20078;-85
2022/03/24 11:05:13;;;;;;;71.68;51.20;;;;;;;;;;6152291;23;20025;-89
2022/03/24 11:07:39;;;;;;;70.78;49.95;;;;;;;;;;6204106;23;20020;-82
2022/03/24 11:10:15;;;;;;;71.47;50.55;;;;;;;;;;6208149;23;20349;-81
2022/03/24 11:12:43;;;;;;;71.28;50.30;;;;;;;;;;6208187;23;20028;-82
2022/03/24 11:15:10;;;;;;;76.30;53.00;;;;;;;;;;6205095;23;20023;-87
2022/03/24 11:17:37;;;;;;;68.80;50.38;;;;;;;;;;6178459;23;20016;-83
2022/03/24 11:20:07;;;;;;;72.28;52.28;;;;;;;;;;6213607;23;20465;-85
2022/03/24 11:22:40;;;;;;;86.22;55.47;;;;;;;;;;6159370;23;20123;-86
2022/03/24 11:25:09;;;;;;;80.50;55.17;;;;;;;;;;6197573;23;20016;-86
2022/03/24 11:27:35;;;;;;;73.97;55.25;;;;;;;;;;6221754;23;20068;-86
2022/03/24 11:30:03;;;;;;;74.35;53.92;;;;;;;;;;6197884;23;20024;-82
2022/03/24 11:32:30;;;;;;;81.28;57.50;;;;;;;;;;6221694;23;20064;-86
2022/03/24 11:34:56;;;;;;;77.03;55.72;;;;;;;;;;6219952;23;20020;-82
2022/03/24 11:37:22;;;;;;;74.78;54.75;;;;;;;;;;6209273;23;20024;-85
2022/03/24 11:40:09;;;;;;;70.93;53.83;;;;;;;;;;6217446;23;20044;-82
2022/03/24 11:42:50;;;;;;;79.18;54.72;;;;;;;;;;6208481;23;20437;-86
2022/03/24 11:45:35;;;;;;;72.82;52.08;;;;;;;;;;6225542;23;20112;-86
2022/03/24 11:48:01;;;;;;;73.60;50.17;;;;;;;;;;6214891;23;20024;-83
2022/03/24 11:50:41;;;;;;;65.00;46.65;;;;;;;;;;6219327;23;20074;-84
2022/03/24 11:53:10;;;;;;;69.43;48.20;;;;;;;;;;6173507;23;20024;-85
2022/03/24 11:55:37;;;;;;;63.15;42.38;;;;;;;;;;6224598;23;20004;-80
2022/03/24 11:58:04;;;;;;;58.03;43.60;;;;;;;;;;6153682;23;20047;-83
2022/03/24 12:00:30;;;;;;;58.92;42.05;;;;;;;;;;6211525;23;20348;-85
2022/03/24 12:03:00;;;;;;;59.95;44.13;;;;;;;;;;6206209;23;20040;-86
2022/03/24 12:05:45;;;;;;;57.65;41.17;;;;;;;;;;6206362;23;20353;-84
2022/03/24 12:08:11;;;;;;;54.40;38.10;;;;;;;;;;6207646;23;20021;-85
2022/03/24 12:10:37;;;;;;;54.65;40.65;;;;;;;;;;6203849;23;20028;-83
2022/03/24 12:13:20;;;;;;;56.40;39.70;;;;;;;;;;6153923;23;20416;-82
2022/03/24 12:16:06;;;;;;;60.17;43.67;;;;;;;;;;6204302;23;20067;-86
2022/03/24 12:18:42;;;;;;;56.65;41.35;;;;;;;;;;6205158;23;20091;-83
2022/03/24 12:21:08;;;;;;;58.47;43.60;;;;;;;;;;6206051;23;20074;-83
2022/03/24 12:23:54;;;;;;;61.70;43.65;;;;;;;;;;6204853;23;20031;-83
2022/03/24 12:26:23;;;;;;;61.28;44.58;;;;;;;;;;6164626;23;20017;-85
2022/03/24 12:29:09;;;;;;;57.17;43.90;;;;;;;;;;6205284;23;20029;-89
2022/03/24 12:31:54;;;;;;;60.78;44.65;;;;;;;;;;6205200;23;20021;-84
2022/03/24 12:34:21;;;;;;;59.53;45.67;;;;;;;;;;6205812;23;20112;-85
2022/03/24 12:36:47;;;;;;;65.90;43.90;;;;;;;;;;6203758;23;20409;-84
2022/03/24 12:39:30;;;;;;;51.67;40.28;;;;;;;;;;6205098;23;20052;-82
2022/03/24 12:42:08;;;;;;;50.15;37.78;;;;;;;;;;6177882;23;20056;-86
2022/03/24 12:44:50;;;;;;;56.80;41.72;;;;;;;;;;6178912;23;20024;-81
2022/03/24 12:47:36;;;;;;;57.13;43.72;;;;;;;;;;6207682;23;20028;-82
2022/03/24 12:50:09;;;;;;;54.17;40.38;;;;;;;;;;6206018;23;20021;-85
2022/03/24 12:52:54;;;;;;;51.20;42.13;;;;;;;;;;6156496;23;20457;-85
2022/03/24 12:55:27;;;;;;;47.25;37.28;;;;;;;;;;6207103;23;20029;-84
2022/03/24 12:57:56;;;;;;;49.97;35.85;;;;;;;;;;6208189;23;20020;-81
2022/03/24 13:00:24;;;;;;;48.15;37.40;;;;;;;;;;6157249;23;20024;-88
2022/03/24 13:02:50;;;;;;;47.72;36.70;;;;;;;;;;6206925;23;20031;-84
2022/03/24 13:05:26;;;;;;;52.28;38.72;;;;;;;;;;6208808;23;20834;-82
2022/03/24 13:07:53;;;;;;;51.20;38.03;;;;;;;;;;6206737;23;20095;-83
2022/03/24 13:10:20;;;;;;;51.90;38.30;;;;;;;;;;6208420;23;20023;-81
2022/03/24 13:12:48;;;;;;;49.05;37.15;;;;;;;;;;6207256;23;20066;-84
2022/03/24 13:15:18;;;;;;;51.55;38.28;;;;;;;;;;6181465;23;20059;-80
2022/03/24 13:17:48;;;;;;;48.97;38.97;;;;;;;;;;6132513;23;20116;-84
2022/03/24 13:20:15;;;;;;;48.72;37.20;;;;;;;;;;6154769;23;20096;-79
2022/03/24 13:22:41;;;;;;;46.55;36.67;;;;;;;;;;6208958;23;20063;-85
2022/03/24 13:25:10;;;;;;;59.30;39.47;;;;;;;;;;6207327;23;20024;-84
2022/03/24 13:27:51;;;;;;;47.10;36.08;;;;;;;;;;6209416;23;20400;-83
2022/03/24 13:30:19;;;;;;;49.75;35.05;;;;;;;;;;6208057;23;20525;-82
2022/03/24 13:32:46;;;;;;;43.63;33.67;;;;;;;;;;6207765;23;20024;-82
2022/03/24 13:35:15;;;;;;;48.60;38.17;;;;;;;;;;6205884;23;20361;-84
2022/03/24 13:37:45;;;;;;;55.22;39.92;;;;;;;;;;6204529;23;20023;-85
2022/03/24 13:40:13;;;;;;;51.10;39.25;;;;;;;;;;6208604;23;20036;-83
2022/03/24 13:42:40;;;;;;;49.60;37.63;;;;;;;;;;6153709;23;20024;-79
2022/03/24 13:45:06;;;;;;;48.03;33.60;;;;;;;;;;6208465;23;20047;-84
2022/03/24 13:47:33;;;;;;;45.05;35.72;;;;;;;;;;6205634;23;20028;-80
2022/03/24 13:50:00;;;;;;;42.80;32.45;;;;;;;;;;6180188;23;20024;-81
2022/03/24 13:52:52;;;;;;;45.25;35.10;;;;;;;;;;6180323;23;20017;-81
2022/03/24 13:55:18;;;;;;;43.50;33.97;;;;;;;;;;6175113;23;20047;-84
2022/03/24 13:57:45;;;;;;;44.95;34.05;;;;;;;;;;6180064;23;20457;-82
2022/03/24 14:00:12;;;;;;;49.22;37.13;;;;;;;;;;6205799;23;20124;-83
2022/03/24 14:02:43;;;;;;;46.20;37.53;;;;;;;;;;6207151;23;20016;-84
2022/03/24 14:05:09;;;;;;;45.28;34.67;;;;;;;;;;6178165;23;20647;-83
2022/03/24 14:07:54;;;;;;;47.45;36.42;;;;;;;;;;6206661;23;20052;-83
2022/03/24 14:10:21;;;;;;;47.25;35.20;;;;;;;;;;6207992;23;20024;-82
2022/03/24 14:12:51;;;;;;;49.88;36.35;;;;;;;;;;6205563;23;20055;-81
2022/03/24 14:15:21;;;;;;;49.13;35.55;;;;;;;;;;6207977;23;20348;-83
2022/03/24 14:18:07;;;;;;;48.33;35.17;;;;;;;;;;6205745;23;20028;-83
2022/03/24 14:20:44;;;;;;;45.63;34.20;;;;;;;;;;6206386;23;20021;-82